Time;durP1;ratioP1;P1;durP2;ratioP2;P2;SDS_P1;SDS_P2;PMS_P1;PMS_P2;Temp;Humidity;BMP_temperature;BMP_pressure;BME280_temperature;BME280_humidity;BME280_pressure;Samples;Min_cycle;Max_cycle;Signal;HPM_P1;HPM_P2
2022/04/15 00:01:26;;;;;;;9.23;6.43;;;11.10;79.80;;;;;;5053523;28;20025;-38
2022/04/15 00:03:53;;;;;;;9.35;6.65;;;11.10;79.80;;;;;;5053811;28;20024;-39
2022/04/15 00:06:20;;;;;;;10.40;7.30;;;11.10;79.90;;;;;;5053618;28;20519;-39
2022/04/15 00:08:46;;;;;;;12.70;8.00;;;11.10;80.00;;;;;;5053448;28;20024;-39
2022/04/15 00:11:12;;;;;;;12.90;7.55;;;11.00;80.10;;;;;;5053390;28;20094;-39
2022/04/15 00:13:38;;;;;;;11.75;7.82;;;10.90;80.40;;;;;;5053322;28;20068;-39
2022/04/15 00:16:05;;;;;;;10.98;8.52;;;10.90;80.60;;;;;;5053321;28;20017;-40
2022/04/15 00:18:32;;;;;;;15.15;8.20;;;10.80;80.90;;;;;;5053295;28;20049;-39
2022/04/15 00:20:58;;;;;;;11.48;7.15;;;10.70;81.00;;;;;;5053132;28;20021;-39
2022/04/15 00:23:24;;;;;;;10.02;7.35;;;10.70;81.10;;;;;;5053260;28;20094;-37
2022/04/15 00:25:51;;;;;;;10.20;7.70;;;10.60;81.20;;;;;;5053199;28;20419;-40
2022/04/15 00:28:16;;;;;;;9.57;7.28;;;10.70;81.30;;;;;;5052244;28;20146;-39
2022/04/15 00:30:42;;;;;;;12.15;7.57;;;10.60;81.20;;;;;;5052874;28;20053;-39
2022/04/15 00:33:08;;;;;;;8.52;7.35;;;10.60;81.20;;;;;;5052884;28;20029;-40
2022/04/15 00:35:34;;;;;;;11.07;7.43;;;10.60;81.20;;;;;;5052889;28;20415;-39
2022/04/15 00:37:59;;;;;;;9.43;7.30;;;10.60;81.20;;;;;;5052880;28;20028;-39
2022/04/15 00:40:25;;;;;;;10.05;7.15;;;10.60;81.80;;;;;;5052872;28;20146;-38
2022/04/15 00:42:51;;;;;;;12.70;7.53;;;10.60;81.20;;;;;;5053076;28;20032;-38
2022/04/15 00:45:54;;;;;;;9.95;7.75;;;10.60;81.20;;;;;;5053032;28;20048;-39
2022/04/15 00:48:19;;;;;;;9.88;7.40;;;10.60;81.40;;;;;;5052734;28;20025;-38
2022/04/15 00:50:45;;;;;;;9.48;7.45;;;10.60;81.30;;;;;;5053023;28;20039;-39
2022/04/15 00:53:12;;;;;;;10.38;7.70;;;10.60;81.30;;;;;;5052877;28;20108;-39
2022/04/15 00:55:40;;;;;;;11.98;7.50;;;10.60;81.20;;;;;;5052928;28;20325;-39
2022/04/15 00:58:06;;;;;;;11.98;7.70;;;10.60;81.20;;;;;;5052646;28;20025;-39
2022/04/15 01:00:34;;;;;;;10.25;7.22;;;10.60;81.20;;;;;;5052874;28;20468;-39
2022/04/15 01:03:01;;;;;;;10.68;7.43;;;10.60;81.20;;;;;;5052390;28;20535;-44
2022/04/15 01:05:27;;;;;;;9.55;7.15;;;10.60;81.20;;;;;;5052614;28;20063;-38
2022/04/15 01:07:58;;;;;;;9.50;7.40;;;10.60;81.20;;;;;;5034518;28;20028;-39
2022/04/15 01:10:25;;;;;;;8.63;7.40;;;10.60;81.20;;;;;;5052076;28;20112;-39
2022/04/15 01:12:58;;;;;;;10.13;7.32;;;10.60;81.20;;;;;;5052014;28;20108;-49
2022/04/15 01:15:25;;;;;;;10.55;7.35;;;10.60;81.30;;;;;;5052050;28;20025;-39
2022/04/15 01:17:51;;;;;;;11.25;7.55;;;10.50;81.20;;;;;;5052044;28;20054;-39
2022/04/15 01:20:17;;;;;;;9.52;7.10;;;10.50;81.10;;;;;;5052029;28;20021;-39
2022/04/15 01:22:45;;;;;;;10.60;8.10;;;10.60;81.20;;;;;;5051886;28;20068;-40
2022/04/15 01:25:13;;;;;;;9.45;7.68;;;10.50;81.70;;;;;;5034060;28;20079;-39
2022/04/15 01:27:42;;;;;;;10.82;7.85;;;10.50;81.10;;;;;;5052161;28;20052;-39
2022/04/15 01:30:13;;;;;;;10.15;7.63;;;10.50;81.10;;;;;;5052024;28;20021;-39
2022/04/15 01:32:38;;;;;;;12.93;8.43;;;10.60;81.20;;;;;;5052026;28;20550;-40
2022/04/15 01:35:07;;;;;;;11.73;8.63;;;10.60;81.00;;;;;;5052014;28;20037;-39
2022/04/15 01:37:34;;;;;;;13.38;8.68;;;10.60;80.80;;;;;;5051979;28;20511;-37
2022/04/15 01:40:00;;;;;;;12.52;8.77;;;10.60;80.80;;;;;;5052843;28;20028;-40
2022/04/15 01:42:26;;;;;;;16.63;8.10;;;10.60;80.80;;;;;;5056016;28;20025;-42
2022/04/15 01:44:52;;;;;;;15.13;8.60;;;10.50;80.90;;;;;;5055714;28;20013;-39
2022/04/15 01:47:17;;;;;;;13.88;8.07;;;10.40;81.00;;;;;;5055763;28;20032;-39
2022/04/15 01:49:43;;;;;;;11.80;8.00;;;10.30;81.10;;;;;;5055764;28;20052;-39
2022/04/15 01:52:09;;;;;;;14.23;7.72;;;10.30;81.20;;;;;;5055663;28;20366;-39
2022/04/15 01:54:35;;;;;;;12.65;8.23;;;10.20;81.30;;;;;;5055673;28;20456;-39
2022/04/15 01:57:00;;;;;;;28.70;8.75;;;10.20;81.50;;;;;;5055468;28;20445;-40
2022/04/15 01:59:26;;;;;;;14.43;7.50;;;10.20;81.50;;;;;;5055792;28;20041;-38
2022/04/15 02:01:54;;;;;;;10.20;8.05;;;10.20;81.50;;;;;;5056086;28;20353;-39
2022/04/15 02:04:25;;;;;;;10.18;7.85;;;10.10;81.40;;;;;;5037576;28;20025;-39
2022/04/15 02:06:51;;;;;;;24.88;8.25;;;10.20;81.50;;;;;;5055508;28;20104;-39
2022/04/15 02:09:17;;;;;;;13.57;8.23;;;10.20;81.50;;;;;;5055711;28;20033;-39
2022/04/15 02:11:42;;;;;;;42.63;8.73;;;10.10;81.40;;;;;;5037392;28;20112;-39
2022/04/15 02:14:08;;;;;;;20.58;8.43;;;9.90;81.40;;;;;;5055345;28;20068;-40
2022/04/15 02:16:34;;;;;;;31.38;7.97;;;9.80;81.50;;;;;;5055448;28;20484;-38
2022/04/15 02:19:00;;;;;;;12.05;7.20;;;9.70;81.80;;;;;;5055147;28;20027;-37
2022/04/15 02:21:26;;;;;;;11.13;7.10;;;9.50;81.90;;;;;;5055048;28;20021;-38
2022/04/15 02:23:51;;;;;;;13.20;7.15;;;9.40;82.10;;;;;;5055146;28;20103;-38
2022/04/15 02:26:17;;;;;;;14.18;7.22;;;9.40;82.20;;;;;;5055292;28;20330;-38
2022/04/15 02:28:43;;;;;;;18.02;7.07;;;9.40;82.10;;;;;;5055041;28;20025;-38
2022/04/15 02:31:08;;;;;;;11.13;6.88;;;9.30;82.30;;;;;;5055054;28;20037;-39
2022/04/15 02:33:34;;;;;;;19.38;6.45;;;9.30;82.40;;;;;;5054957;28;20037;-38
2022/04/15 02:35:59;;;;;;;7.97;6.25;;;9.20;82.50;;;;;;5054924;28;20025;-39
2022/04/15 02:38:25;;;;;;;7.47;6.38;;;9.30;82.50;;;;;;5055170;28;20045;-40
2022/04/15 02:40:51;;;;;;;7.20;6.28;;;9.30;82.50;;;;;;5054937;28;20017;-39
2022/04/15 02:43:17;;;;;;;7.20;6.05;;;9.30;82.40;;;;;;5054962;28;20032;-39
2022/04/15 02:45:43;;;;;;;6.60;5.80;;;9.30;82.40;;;;;;5055001;28;20052;-38
2022/04/15 02:48:08;;;;;;;6.88;5.97;;;9.40;82.50;;;;;;5054687;28;20075;-39
2022/04/15 02:50:34;;;;;;;7.93;6.13;;;9.50;82.50;;;;;;5055015;28;20029;-39
2022/04/15 02:53:01;;;;;;;10.30;6.47;;;9.50;82.40;;;;;;5053425;28;20024;-39
2022/04/15 02:55:27;;;;;;;9.02;6.30;;;9.60;82.20;;;;;;5054800;28;20074;-40
2022/04/15 02:57:52;;;;;;;7.35;6.45;;;9.60;82.10;;;;;;5036911;28;20504;-40
2022/04/15 03:00:19;;;;;;;9.43;7.20;;;9.70;82.00;;;;;;5054364;28;20025;-39
2022/04/15 03:02:44;;;;;;;7.45;6.55;;;9.70;81.90;;;;;;5054411;28;20040;-40
2022/04/15 03:05:10;;;;;;;9.05;5.93;;;9.80;82.00;;;;;;5054319;28;20128;-39
2022/04/15 03:07:37;;;;;;;9.80;6.53;;;9.80;81.90;;;;;;5054403;28;20025;-40
2022/04/15 03:10:04;;;;;;;9.18;6.78;;;9.80;81.90;;;;;;5054233;28;20057;-40
2022/04/15 03:12:36;;;;;;;9.90;6.75;;;9.70;81.90;;;;;;5054283;28;20028;-40
2022/04/15 03:15:04;;;;;;;8.95;6.50;;;9.70;82.00;;;;;;5054036;28;20031;-48
2022/04/15 03:17:29;;;;;;;7.60;6.30;;;9.80;82.00;;;;;;5054035;28;20079;-39
2022/04/15 03:19:55;;;;;;;8.07;6.88;;;9.80;82.00;;;;;;5053985;28;20025;-37
2022/04/15 03:22:21;;;;;;;10.60;7.00;;;9.80;82.00;;;;;;5054019;28;20419;-39
2022/04/15 03:24:48;;;;;;;11.10;7.47;;;9.90;82.00;;;;;;5054057;28;20025;-39
2022/04/15 03:27:14;;;;;;;9.90;6.63;;;9.90;81.90;;;;;;5053829;28;20017;-39
2022/04/15 03:29:40;;;;;;;8.50;7.32;;;9.90;81.90;;;;;;5053886;28;20025;-39
2022/04/15 03:32:05;;;;;;;10.00;7.40;;;9.90;81.90;;;;;;5054066;28;20089;-39
2022/04/15 03:34:32;;;;;;;10.65;7.22;;;9.90;82.00;;;;;;5053983;28;20166;-40
2022/04/15 03:36:58;;;;;;;8.95;7.20;;;9.90;81.90;;;;;;5053705;28;20021;-38
2022/04/15 03:39:23;;;;;;;11.20;6.97;;;10.00;81.80;;;;;;5053684;28;20025;-39
2022/04/15 03:41:49;;;;;;;9.55;7.28;;;10.00;81.70;;;;;;5053717;28;20032;-39
2022/04/15 03:44:14;;;;;;;9.90;7.40;;;10.00;81.70;;;;;;5036055;28;20113;-39
2022/04/15 03:46:40;;;;;;;10.30;7.18;;;10.00;81.70;;;;;;5053555;28;20021;-39
2022/04/15 03:49:06;;;;;;;10.40;7.57;;;10.10;81.80;;;;;;5035578;28;20101;-39
2022/04/15 03:51:32;;;;;;;10.15;7.53;;;10.00;81.70;;;;;;5053628;28;20399;-40
2022/04/15 03:53:57;;;;;;;9.07;7.28;;;10.00;81.80;;;;;;5035450;28;20119;-38
2022/04/15 03:56:23;;;;;;;11.00;7.30;;;10.10;81.80;;;;;;5053572;28;20036;-40
2022/04/15 03:58:48;;;;;;;9.40;7.25;;;10.00;81.70;;;;;;5053784;28;20052;-37
2022/04/15 04:01:14;;;;;;;8.45;7.20;;;10.10;81.70;;;;;;5035506;28;20477;-39
2022/04/15 04:03:39;;;;;;;9.70;7.60;;;10.00;81.70;;;;;;5052933;28;20500;-39
2022/04/15 04:06:05;;;;;;;12.20;7.05;;;10.00;81.70;;;;;;5053452;28;20108;-39
2022/04/15 04:08:31;;;;;;;9.32;7.25;;;10.00;81.60;;;;;;5053241;28;20025;-39
2022/04/15 04:10:56;;;;;;;10.07;6.90;;;10.00;81.70;;;;;;5053079;28;20060;-40
2022/04/15 04:13:22;;;;;;;10.18;6.93;;;10.00;81.70;;;;;;5053508;28;20021;-38
2022/04/15 04:15:48;;;;;;;9.30;6.85;;;10.10;81.70;;;;;;5053694;28;20013;-39
2022/04/15 04:18:14;;;;;;;10.02;6.53;;;10.10;81.60;;;;;;5053209;28;20511;-39
2022/04/15 04:20:41;;;;;;;7.93;5.82;;;10.10;81.50;;;;;;5053055;28;20087;-40
2022/04/15 04:23:07;;;;;;;8.50;6.30;;;10.00;81.40;;;;;;5053053;28;20064;-40
2022/04/15 04:25:33;;;;;;;11.30;6.65;;;9.90;81.50;;;;;;5053197;28;20028;-38
2022/04/15 04:27:58;;;;;;;8.55;5.65;;;9.80;81.70;;;;;;5052906;28;20041;-39
2022/04/15 04:30:24;;;;;;;6.88;5.82;;;9.80;81.70;;;;;;5053022;28;20104;-39
2022/04/15 04:32:49;;;;;;;9.27;5.88;;;9.80;81.70;;;;;;5052580;28;20441;-39
2022/04/15 04:35:17;;;;;;;6.88;5.43;;;9.70;81.80;;;;;;5052562;28;20017;-40
2022/04/15 04:37:44;;;;;;;7.88;5.60;;;9.70;81.80;;;;;;5035489;28;20017;-38
2022/04/15 04:40:10;;;;;;;8.23;5.97;;;9.60;81.80;;;;;;5052504;28;20108;-39
2022/04/15 04:42:36;;;;;;;8.98;5.72;;;9.60;81.80;;;;;;5052599;28;20388;-39
2022/04/15 04:45:02;;;;;;;7.70;5.30;;;9.50;81.90;;;;;;5052500;28;20018;-38
2022/04/15 04:47:29;;;;;;;7.20;5.80;;;9.50;81.90;;;;;;5052652;28;20024;-40
2022/04/15 04:49:55;;;;;;;5.97;5.18;;;9.50;81.90;;;;;;5052404;28;20078;-39
2022/04/15 04:52:25;;;;;;;7.22;5.43;;;9.50;81.90;;;;;;5052323;28;20112;-42
2022/04/15 04:54:51;;;;;;;7.07;5.72;;;9.50;81.90;;;;;;5052454;28;20036;-39
2022/04/15 04:57:16;;;;;;;6.32;5.30;;;9.50;81.90;;;;;;5052406;28;20052;-46
2022/04/15 04:59:42;;;;;;;6.82;5.43;;;9.50;81.80;;;;;;5052437;28;20025;-39
2022/04/15 05:02:10;;;;;;;7.65;5.72;;;9.50;81.80;;;;;;5052422;28;20021;-40
2022/04/15 05:04:36;;;;;;;8.85;5.20;;;9.50;81.80;;;;;;5052684;28;20507;-39
2022/04/15 05:07:03;;;;;;;8.45;5.40;;;9.50;81.80;;;;;;5052330;28;20137;-39
2022/04/15 05:09:28;;;;;;;6.78;5.75;;;9.50;81.80;;;;;;5052269;28;20045;-40
2022/04/15 05:11:55;;;;;;;9.35;5.57;;;9.50;81.80;;;;;;5052104;28;20025;-39
2022/04/15 05:14:20;;;;;;;6.43;5.13;;;9.50;81.80;;;;;;5033512;28;20021;-39
2022/04/15 05:16:46;;;;;;;7.80;5.95;;;9.50;81.80;;;;;;5051986;28;20035;-39
2022/04/15 05:19:12;;;;;;;8.65;5.20;;;9.50;81.70;;;;;;5052084;28;20045;-39
2022/04/15 05:21:38;;;;;;;7.43;5.93;;;9.50;81.70;;;;;;5051740;28;20033;-39
2022/04/15 05:24:06;;;;;;;8.38;5.40;;;9.50;81.70;;;;;;5052108;28;20095;-40
2022/04/15 05:26:33;;;;;;;7.95;5.60;;;9.50;81.70;;;;;;5034176;28;20021;-39
2022/04/15 05:28:59;;;;;;;7.18;5.50;;;9.60;81.70;;;;;;5052331;28;20383;-39
2022/04/15 05:31:25;;;;;;;9.65;5.80;;;9.60;81.60;;;;;;5052309;28;20082;-39
2022/04/15 05:33:50;;;;;;;7.82;5.95;;;9.50;81.50;;;;;;5052370;28;20025;-40
2022/04/15 05:36:16;;;;;;;9.10;5.72;;;9.60;81.60;;;;;;5052223;28;20014;-40
2022/04/15 05:38:42;;;;;;;8.25;5.70;;;9.60;81.60;;;;;;5034319;28;20071;-40
2022/04/15 05:41:07;;;;;;;9.38;5.70;;;9.50;81.50;;;;;;5052347;28;20029;-39
2022/04/15 05:43:33;;;;;;;9.20;5.63;;;9.50;81.60;;;;;;5052007;28;20104;-39
2022/04/15 05:45:59;;;;;;;8.00;5.28;;;9.40;81.60;;;;;;5052015;28;20035;-39
2022/04/15 05:48:24;;;;;;;7.63;5.65;;;9.40;81.70;;;;;;5051830;28;20024;-39
2022/04/15 05:50:51;;;;;;;7.68;4.72;;;9.50;81.70;;;;;;5051650;28;20027;-39
2022/04/15 05:53:17;;;;;;;7.22;4.85;;;9.50;81.70;;;;;;5051562;28;20035;-39
2022/04/15 05:55:42;;;;;;;8.88;5.53;;;9.50;81.70;;;;;;5051686;28;20107;-47
2022/04/15 05:58:10;;;;;;;9.80;5.00;;;9.50;81.50;;;;;;5051547;28;20021;-39
2022/04/15 06:00:36;;;;;;;6.75;4.57;;;9.50;81.50;;;;;;5051561;28;20108;-40
2022/04/15 06:03:02;;;;;;;9.15;4.55;;;9.50;81.30;;;;;;5051521;28;20032;-39
2022/04/15 06:05:27;;;;;;;8.63;4.55;;;9.60;81.30;;;;;;5051494;28;20029;-40
2022/04/15 06:07:53;;;;;;;5.47;4.28;;;9.60;81.20;;;;;;5033534;28;20027;-39
2022/04/15 06:10:19;;;;;;;5.70;4.00;;;9.50;81.10;;;;;;5051860;28;20433;-39
2022/04/15 06:15:28;;;;;;;5.47;3.55;;;9.50;81.10;;;;;;5051486;28;20040;-39
2022/04/15 06:17:54;;;;;;;5.40;3.25;;;9.50;81.10;;;;;;5051609;28;20477;-40
2022/04/15 06:20:20;;;;;;;6.00;3.58;;;9.60;81.00;;;;;;5051367;28;20051;-40
2022/04/15 06:22:45;;;;;;;4.78;3.88;;;9.50;80.80;;;;;;5051206;28;20045;-40
2022/04/15 06:25:11;;;;;;;4.63;3.53;;;9.50;80.80;;;;;;5033306;28;20028;-40
2022/04/15 06:27:37;;;;;;;5.25;3.88;;;9.60;80.70;;;;;;5054596;28;20025;-40
2022/04/15 06:30:04;;;;;;;5.13;3.67;;;9.50;80.50;;;;;;5054981;28;20499;-40
2022/04/15 06:32:30;;;;;;;5.10;3.63;;;9.50;80.50;;;;;;5036889;28;20021;-39
2022/04/15 06:34:55;;;;;;;4.00;3.10;;;9.50;80.30;;;;;;5054930;28;20032;-38
2022/04/15 06:37:21;;;;;;;5.78;3.53;;;9.50;80.30;;;;;;5054645;28;20043;-40
2022/04/15 06:39:50;;;;;;;5.50;3.28;;;9.60;80.30;;;;;;5054798;28;20044;-40
2022/04/15 06:42:26;;;;;;;4.22;3.17;;;9.60;80.20;;;;;;5036755;28;20017;-41
2022/04/15 06:48:14;;;;;;;2.85;2.60;;;9.70;80.00;;;;;;5054902;28;20496;-39
2022/04/15 06:50:39;;;;;;;4.30;2.78;;;9.80;79.80;;;;;;5054488;28;20021;-39
2022/04/15 06:53:06;;;;;;;3.55;2.40;;;9.80;79.70;;;;;;5054572;28;20058;-40
2022/04/15 06:55:32;;;;;;;7.80;3.38;;;9.90;79.60;;;;;;5054471;28;20017;-39
2022/04/15 06:57:57;;;;;;;4.68;2.90;;;10.00;79.40;;;;;;5054269;28;20013;-39
2022/04/15 07:00:23;;;;;;;6.00;2.70;;;10.00;79.20;;;;;;5054031;28;20023;-39
2022/04/15 07:02:49;;;;;;;3.97;2.28;;;10.10;79.00;;;;;;5054094;28;20100;-39
2022/04/15 07:05:16;;;;;;;2.55;2.15;;;10.10;78.80;;;;;;5054126;28;20025;-40
2022/04/15 07:07:42;;;;;;;2.70;2.50;;;10.20;78.60;;;;;;5054421;28;20029;-40
2022/04/15 07:10:10;;;;;;;3.80;2.55;;;10.30;78.10;;;;;;5054444;28;20021;-40
2022/04/15 07:12:36;;;;;;;4.22;2.35;;;10.30;77.40;;;;;;5054018;28;20033;-41
2022/04/15 07:15:03;;;;;;;3.42;2.25;;;10.30;77.50;;;;;;5054584;28;20025;-40
2022/04/15 07:17:28;;;;;;;2.13;1.95;;;10.40;77.60;;;;;;5054426;28;20061;-40
2022/04/15 07:19:54;;;;;;;2.78;2.00;;;10.50;78.00;;;;;;5054396;28;20041;-40
2022/04/15 07:22:20;;;;;;;1.95;1.83;;;10.50;76.90;;;;;;5053818;28;20082;-41
2022/04/15 07:24:46;;;;;;;2.95;1.83;;;10.60;76.80;;;;;;5036792;28;20036;-40
2022/04/15 07:27:12;;;;;;;2.53;1.50;;;10.60;76.60;;;;;;5054396;28;20025;-41
2022/04/15 07:29:38;;;;;;;2.95;1.80;;;10.70;76.70;;;;;;5054046;28;20111;-41
2022/04/15 07:32:04;;;;;;;5.32;3.75;;;10.70;76.40;;;;;;5035914;28;20228;-41
2022/04/15 07:34:30;;;;;;;4.75;2.70;;;10.80;76.30;;;;;;5053963;28;20530;-41
2022/04/15 07:36:57;;;;;;;3.22;2.15;;;10.80;76.40;;;;;;5053876;28;20100;-41
2022/04/15 07:39:24;;;;;;;3.38;2.20;;;10.80;76.20;;;;;;5053272;28;20332;-40
2022/04/15 07:41:50;;;;;;;3.47;2.00;;;10.90;76.10;;;;;;5054147;28;20021;-41
2022/04/15 07:44:16;;;;;;;2.88;1.70;;;10.90;76.00;;;;;;5054133;28;20048;-41
2022/04/15 07:46:43;;;;;;;1.65;1.55;;;10.90;76.10;;;;;;5053861;28;20041;-43
2022/04/15 07:49:10;;;;;;;2.55;1.75;;;11.00;76.00;;;;;;5053767;28;20025;-41
2022/04/15 07:51:37;;;;;;;3.05;2.05;;;11.00;76.50;;;;;;5053654;28;20033;-40
2022/04/15 07:54:03;;;;;;;2.90;1.98;;;11.00;75.90;;;;;;5053626;28;20021;-40
2022/04/15 07:56:29;;;;;;;3.83;2.00;;;11.00;75.70;;;;;;5053876;28;20056;-39
2022/04/15 07:58:55;;;;;;;7.15;4.28;;;11.10;75.40;;;;;;5053447;28;20152;-41
2022/04/15 08:01:21;;;;;;;3.33;2.53;;;11.00;75.50;;;;;;5053338;28;20389;-41
2022/04/15 08:03:47;;;;;;;4.05;2.20;;;11.10;75.60;;;;;;5035456;28;20021;-41
2022/04/15 08:06:13;;;;;;;5.03;2.00;;;11.10;75.50;;;;;;5053570;28;20025;-44
2022/04/15 08:08:39;;;;;;;4.15;2.00;;;11.20;75.50;;;;;;5053497;28;20384;-41
2022/04/15 08:11:05;;;;;;;2.85;1.60;;;11.20;75.40;;;;;;5053228;28;20025;-41
2022/04/15 08:13:32;;;;;;;2.38;1.98;;;11.20;75.40;;;;;;5053163;28;20025;-40
2022/04/15 08:15:58;;;;;;;1.92;1.58;;;11.30;75.40;;;;;;5053282;28;20063;-41
2022/04/15 08:18:25;;;;;;;2.70;1.77;;;11.30;75.30;;;;;;5053080;28;20471;-41
2022/04/15 08:20:52;;;;;;;2.85;2.05;;;11.30;75.30;;;;;;5053192;28;20025;-40
2022/04/15 08:23:18;;;;;;;4.88;2.10;;;11.30;75.10;;;;;;5052899;28;20454;-40
2022/04/15 08:25:44;;;;;;;5.32;2.30;;;11.30;75.20;;;;;;5052796;28;20440;-40
2022/04/15 08:28:11;;;;;;;4.97;2.20;;;11.30;75.20;;;;;;5052841;28;20035;-40
2022/04/15 08:30:37;;;;;;;5.22;2.30;;;11.20;75.00;;;;;;5053231;28;20427;-40
2022/04/15 08:33:06;;;;;;;3.95;2.13;;;11.30;75.20;;;;;;5052908;28;20104;-40
2022/04/15 08:35:33;;;;;;;4.13;2.50;;;11.30;75.10;;;;;;5052595;28;20384;-48
2022/04/15 08:37:59;;;;;;;3.95;2.20;;;11.40;75.10;;;;;;5034790;28;20120;-40
2022/04/15 08:40:27;;;;;;;3.10;2.10;;;11.30;75.60;;;;;;5052549;28;20072;-42
2022/04/15 08:42:53;;;;;;;4.90;2.40;;;11.40;75.00;;;;;;5052897;28;20063;-40
2022/04/15 08:45:21;;;;;;;3.20;2.20;;;11.50;74.80;;;;;;5052680;28;20112;-39
2022/04/15 08:47:48;;;;;;;4.93;2.90;;;11.40;74.60;;;;;;5052472;28;20033;-39
2022/04/15 08:50:14;;;;;;;4.00;2.90;;;11.40;74.70;;;;;;5052031;28;20041;-41
2022/04/15 08:52:41;;;;;;;3.22;2.70;;;11.40;74.70;;;;;;5052464;28;20056;-41
2022/04/15 08:55:07;;;;;;;4.30;2.90;;;11.40;75.10;;;;;;5052669;28;20028;-41
2022/04/15 08:57:33;;;;;;;4.55;2.80;;;11.40;74.60;;;;;;5052657;28;20021;-40
2022/04/15 08:59:59;;;;;;;4.05;2.72;;;11.40;74.60;;;;;;5052510;28;20094;-39
2022/04/15 09:02:37;;;;;;;3.35;2.80;;;11.40;74.60;;;;;;5052443;28;20025;-39
2022/04/15 09:05:04;;;;;;;4.43;2.47;;;11.40;74.50;;;;;;5052698;28;20032;-41
2022/04/15 09:07:31;;;;;;;3.17;2.42;;;11.50;74.50;;;;;;5052301;28;20124;-47
2022/04/15 09:09:58;;;;;;;4.53;2.55;;;11.60;74.50;;;;;;5052354;28;20488;-41
2022/04/15 09:12:35;;;;;;;2.50;2.03;;;11.60;74.20;;;;;;5052309;28;20025;-38
2022/04/15 09:15:11;;;;;;;4.70;2.60;;;11.60;74.10;;;;;;5052332;28;20060;-39
2022/04/15 09:17:42;;;;;;;4.00;2.58;;;11.70;74.10;;;;;;5052030;28;20025;-39
2022/04/15 09:20:11;;;;;;;3.45;2.47;;;11.70;74.00;;;;;;5052116;28;20013;-41
2022/04/15 09:22:37;;;;;;;5.50;2.60;;;11.70;73.90;;;;;;5051892;28;20037;-42
2022/04/15 09:25:04;;;;;;;5.10;2.70;;;11.70;73.90;;;;;;5052045;28;20048;-41
2022/04/15 09:27:29;;;;;;;5.05;2.85;;;11.80;73.90;;;;;;5052061;28;20032;-41
2022/04/15 09:29:55;;;;;;;3.10;2.60;;;11.80;73.80;;;;;;5034272;28;20380;-40
2022/04/15 09:32:22;;;;;;;4.75;2.80;;;11.80;73.80;;;;;;5052351;28;20033;-41
2022/04/15 09:35:06;;;;;;;7.35;3.05;;;11.90;73.80;;;;;;5052059;28;20139;-41
2022/04/15 09:37:39;;;;;;;7.95;3.30;;;11.90;73.50;;;;;;5051977;28;20017;-43
2022/04/15 09:40:18;;;;;;;;;;;11.90;73.50;;;;;;5052498;28;20117;-42
2022/04/15 09:42:45;;;;;;;5.00;3.00;;;11.80;73.40;;;;;;5052260;28;19912;-40
2022/04/15 09:45:19;;;;;;;3.95;2.90;;;11.80;73.70;;;;;;5052354;28;20025;-41
2022/04/15 09:47:57;;;;;;;4.13;3.05;;;11.80;73.70;;;;;;5033982;28;20079;-48
2022/04/15 09:50:26;;;;;;;5.75;2.92;;;11.80;73.60;;;;;;5051696;28;20017;-40
2022/04/15 09:52:54;;;;;;;4.80;2.95;;;11.80;73.50;;;;;;5051781;28;20025;-40
2022/04/15 09:55:21;;;;;;;3.92;2.85;;;11.90;73.60;;;;;;5051670;28;20033;-40
2022/04/15 09:57:47;;;;;;;5.43;3.50;;;11.90;73.50;;;;;;5051963;28;20379;-46
2022/04/15 10:00:14;;;;;;;4.28;3.22;;;11.90;73.50;;;;;;5052070;28;20025;-40
2022/04/15 10:02:42;;;;;;;4.55;3.35;;;11.90;73.40;;;;;;5055967;28;20036;-38
2022/04/15 10:05:08;;;;;;;4.10;3.42;;;11.90;73.20;;;;;;5056225;28;20025;-41
2022/04/15 10:07:35;;;;;;;3.78;2.92;;;11.90;73.00;;;;;;5055565;28;20025;-40
2022/04/15 10:10:02;;;;;;;3.90;3.17;;;11.90;73.20;;;;;;5055661;28;20029;-39
2022/04/15 10:12:29;;;;;;;5.43;3.47;;;11.80;73.30;;;;;;5055609;28;20056;-41
2022/04/15 10:14:55;;;;;;;4.00;3.30;;;11.80;73.30;;;;;;5055498;28;20498;-40
2022/04/15 10:17:23;;;;;;;4.43;3.83;;;11.80;73.30;;;;;;5055273;28;20017;-41
2022/04/15 10:19:49;;;;;;;5.43;4.05;;;11.90;73.20;;;;;;5055362;28;20055;-46
2022/04/15 10:22:15;;;;;;;7.40;3.67;;;11.80;73.10;;;;;;5055168;28;20113;-39
2022/04/15 10:24:41;;;;;;;5.82;4.00;;;11.70;73.10;;;;;;5055251;28;20028;-41
2022/04/15 10:27:07;;;;;;;4.18;3.55;;;11.60;73.20;;;;;;5055559;28;20029;-39
2022/04/15 10:29:33;;;;;;;6.00;4.10;;;11.70;73.40;;;;;;5055183;28;20029;-39
2022/04/15 10:32:12;;;;;;;4.97;3.40;;;11.70;73.30;;;;;;5055102;28;20092;-40
2022/04/15 10:34:45;;;;;;;6.18;3.83;;;11.80;73.20;;;;;;5054988;28;20042;-44
2022/04/15 10:37:10;;;;;;;4.80;3.40;;;11.70;73.20;;;;;;5055108;28;20053;-39
2022/04/15 10:39:47;;;;;;;6.20;3.70;;;11.80;73.20;;;;;;5054962;28;20095;-39
2022/04/15 10:42:18;;;;;;;5.43;3.53;;;11.90;73.00;;;;;;5054911;28;20036;-40
2022/04/15 10:44:44;;;;;;;4.55;3.65;;;12.00;73.00;;;;;;5055139;28;20040;-40
2022/04/15 10:47:09;;;;;;;4.88;4.25;;;12.00;72.80;;;;;;5054909;28;20033;-39
2022/04/15 10:49:51;;;;;;;6.47;4.10;;;12.00;72.60;;;;;;5055055;28;20031;-40
2022/04/15 10:52:21;;;;;;;7.07;3.97;;;11.90;72.70;;;;;;5054812;28;20035;-38
2022/04/15 10:54:51;;;;;;;6.40;3.88;;;12.00;72.90;;;;;;5055040;28;20021;-45
2022/04/15 10:57:18;;;;;;;4.57;4.07;;;12.00;72.70;;;;;;5054784;28;20465;-38
2022/04/15 11:02:57;;;;;;;5.28;3.90;;;12.10;72.60;;;;;;5054826;28;20064;-40
2022/04/15 11:05:42;;;;;;;7.35;4.55;;;12.10;72.30;;;;;;5054197;28;20408;-38
2022/04/15 11:08:12;;;;;;;6.63;3.92;;;12.10;72.40;;;;;;5054404;28;20032;-40
2022/04/15 11:10:43;;;;;;;5.35;4.30;;;12.10;72.50;;;;;;5054523;28;20044;-40
2022/04/15 11:13:30;;;;;;;5.82;4.25;;;12.10;72.50;;;;;;5053286;28;20063;-40
2022/04/15 11:16:10;;;;;;;6.05;4.30;;;12.20;72.50;;;;;;5054361;28;20078;-40
2022/04/15 11:19:07;;;;;;;5.80;4.30;;;12.20;72.30;;;;;;5054148;28;20039;-40
2022/04/15 11:21:36;;;;;;;6.70;3.67;;;12.20;72.30;;;;;;5053948;28;20028;-39
2022/04/15 11:24:09;;;;;;;7.75;4.50;;;12.20;72.20;;;;;;5054118;28;20452;-40
2022/04/15 11:26:38;;;;;;;5.95;3.95;;;12.20;71.90;;;;;;5036304;28;20013;-40
2022/04/15 11:29:06;;;;;;;5.35;4.03;;;12.20;72.00;;;;;;5053789;28;20029;-39
2022/04/15 11:31:34;;;;;;;5.22;3.53;;;12.30;72.00;;;;;;5054285;28;20361;-39
2022/04/15 11:34:10;;;;;;;4.82;3.70;;;12.30;71.90;;;;;;5053855;28;20087;-39
2022/04/15 11:36:47;;;;;;;5.30;3.70;;;12.40;71.80;;;;;;5054061;28;20075;-39
2022/04/15 11:39:15;;;;;;;5.03;3.42;;;12.40;71.60;;;;;;5053791;28;20473;-43
2022/04/15 11:41:54;;;;;;;4.45;3.75;;;12.50;71.60;;;;;;5053775;28;20021;-39
2022/04/15 11:44:28;;;;;;;6.57;3.80;;;12.60;71.50;;;;;;5053861;28;20101;-40
2022/04/15 11:46:54;;;;;;;5.05;3.75;;;12.60;71.20;;;;;;5053768;28;20115;-39
2022/04/15 11:49:27;;;;;;;4.88;3.40;;;12.60;71.10;;;;;;5053530;28;20086;-39
2022/04/15 11:51:54;;;;;;;4.50;3.70;;;12.60;71.10;;;;;;5053796;28;20086;-40
2022/04/15 11:54:30;;;;;;;4.90;3.70;;;12.70;70.90;;;;;;5035813;28;20017;-40
2022/04/15 11:56:57;;;;;;;4.03;3.08;;;12.90;70.30;;;;;;5053424;28;20031;-41
2022/04/15 11:59:24;;;;;;;5.22;3.95;;;12.90;70.10;;;;;;5053586;28;20094;-39
2022/04/15 12:01:50;;;;;;;4.18;3.25;;;13.00;70.10;;;;;;5053617;28;20388;-41
2022/04/15 12:04:19;;;;;;;3.80;3.17;;;13.00;69.90;;;;;;5053135;28;20032;-39
2022/04/15 12:06:45;;;;;;;4.43;3.38;;;13.00;69.70;;;;;;5053439;28;20377;-40
2022/04/15 12:09:13;;;;;;;4.65;3.50;;;13.10;69.70;;;;;;5053646;28;20028;-40
2022/04/15 12:11:39;;;;;;;3.50;3.20;;;13.20;69.50;;;;;;5053345;28;20032;-40
2022/04/15 12:14:08;;;;;;;3.88;3.10;;;13.30;69.40;;;;;;5053562;28;20013;-38
2022/04/15 12:16:36;;;;;;;5.75;3.53;;;13.40;69.10;;;;;;5053324;28;20140;-39
2022/04/15 12:19:03;;;;;;;5.22;3.30;;;13.40;68.80;;;;;;5053289;28;20112;-39
2022/04/15 12:21:30;;;;;;;4.60;3.30;;;13.40;68.60;;;;;;5052810;28;20032;-39
2022/04/15 12:24:11;;;;;;;4.60;3.13;;;13.40;68.10;;;;;;5052911;28;20381;-39
2022/04/15 12:26:45;;;;;;;5.50;3.30;;;13.40;68.30;;;;;;5053054;28;20037;-41
2022/04/15 12:32:13;;;;;;;4.55;2.90;;;13.60;68.80;;;;;;5052932;28;20048;-40
2022/04/15 12:34:38;;;;;;;4.45;3.25;;;13.70;68.10;;;;;;5052446;28;20033;-40
2022/04/15 12:37:04;;;;;;;4.60;3.33;;;13.80;67.90;;;;;;5052690;28;20047;-39
2022/04/15 12:39:29;;;;;;;3.88;3.15;;;13.80;67.80;;;;;;5052444;28;20110;-39
2022/04/15 12:41:55;;;;;;;4.00;3.30;;;13.80;67.70;;;;;;5052693;28;20014;-39
2022/04/15 12:44:30;;;;;;;5.10;3.45;;;13.80;67.60;;;;;;5052452;28;20021;-38
2022/04/15 12:46:58;;;;;;;4.32;3.17;;;13.90;67.60;;;;;;5052928;28;20021;-40
2022/04/15 12:49:27;;;;;;;3.83;3.28;;;13.90;67.60;;;;;;5052483;28;20524;-41
2022/04/15 12:51:58;;;;;;;4.18;3.17;;;13.90;67.50;;;;;;5052345;28;20053;-45
2022/04/15 12:54:25;;;;;;;5.13;3.80;;;14.00;67.50;;;;;;5052223;28;20079;-39
2022/04/15 12:56:55;;;;;;;4.18;3.55;;;14.00;67.00;;;;;;5052503;28;20077;-40
2022/04/15 12:59:22;;;;;;;5.43;3.78;;;14.00;67.10;;;;;;5052024;28;20443;-40
2022/04/15 13:01:47;;;;;;;3.83;3.45;;;14.00;66.90;;;;;;5034140;28;20491;-38